createdAt,value
2023-03-17T00:00:36.542Z,512.00
2023-03-17T08:20:53.308Z,1016.00
2023-03-17T10:24:34.685Z,795.00
2023-03-17T10:28:34.186Z,707.00
2023-03-17T10:32:34.292Z,685.00
2023-03-17T10:36:34.193Z,674.00
2023-03-17T10:40:34.186Z,676.00
2023-03-17T10:44:34.196Z,653.00
2023-03-17T10:48:34.224Z,618.00
2023-03-17T10:52:34.191Z,615.00
2023-03-17T10:56:34.161Z,612.00
2023-03-17T11:00:34.221Z,596.00
2023-03-17T11:04:34.237Z,597.00
2023-03-17T11:08:34.200Z,600.00
2023-03-17T11:12:34.160Z,589.00
2023-03-17T11:16:34.264Z,587.00
2023-03-17T11:20:34.177Z,587.00
2023-03-17T11:24:34.222Z,568.00
2023-03-17T11:28:34.212Z,565.00
2023-03-17T11:32:34.287Z,566.00
2023-03-17T11:36:34.254Z,564.00
2023-03-17T11:40:34.212Z,550.00
2023-03-17T11:44:34.215Z,550.00
2023-03-17T11:48:34.212Z,552.00
2023-03-17T11:52:34.252Z,543.00
2023-03-17T11:56:34.222Z,540.00
2023-03-17T12:00:34.725Z,537.00
2023-03-17T12:04:33.795Z,539.00
2023-03-17T12:08:33.738Z,540.00
2023-03-17T12:12:33.579Z,532.00
2023-03-17T12:16:33.727Z,531.00
2023-03-17T12:20:34.081Z,531.00
2023-03-17T12:24:33.438Z,531.00
2023-03-17T12:28:33.723Z,532.00
2023-03-17T12:32:33.785Z,527.00
2023-03-17T12:36:33.224Z,535.00
2023-03-17T12:40:33.351Z,536.00
2023-03-17T12:44:33.065Z,540.00
2023-03-17T12:48:33.008Z,545.00
2023-03-17T12:52:32.954Z,545.00
2023-03-17T12:56:33.249Z,543.00
2023-03-17T13:00:32.824Z,545.00
2023-03-17T13:04:33.235Z,541.00
2023-03-17T13:08:32.754Z,540.00
2023-03-17T13:12:32.760Z,539.00
2023-03-17T13:16:32.817Z,531.00
2023-03-17T13:20:32.444Z,537.00
2023-03-17T13:24:32.371Z,559.00
2023-03-17T13:28:32.312Z,565.00
2023-03-17T13:32:32.361Z,578.00
2023-03-17T13:36:32.105Z,571.00
2023-03-17T13:40:32.793Z,572.00
2023-03-17T13:44:31.930Z,572.00
2023-03-17T13:48:32.261Z,568.00
2023-03-17T13:52:31.750Z,568.00
2023-03-17T13:56:32.751Z,577.00
2023-03-17T14:00:31.598Z,576.00
2023-03-17T14:04:32.048Z,573.00
2023-03-17T14:08:31.287Z,568.00
2023-03-17T14:12:31.263Z,558.00
2023-03-17T14:16:31.865Z,558.00
2023-03-17T14:20:31.285Z,552.00
2023-03-17T14:24:31.293Z,548.00
2023-03-17T14:28:31.277Z,544.00
2023-03-17T14:32:30.833Z,540.00
2023-03-17T14:36:30.998Z,539.00
2023-03-17T14:40:30.601Z,539.00
2023-03-17T14:44:30.777Z,537.00
2023-03-17T14:48:30.522Z,533.00
2023-03-17T14:52:30.499Z,532.00
2023-03-17T14:56:30.457Z,530.00
2023-03-17T15:00:30.485Z,526.00
2023-03-17T15:04:30.503Z,530.00
2023-03-17T15:08:30.811Z,528.00
2023-03-17T15:12:30.473Z,530.00
2023-03-17T15:16:30.589Z,524.00
2023-03-17T15:20:30.989Z,524.00
2023-03-17T15:24:30.791Z,525.00
2023-03-17T15:28:30.788Z,523.00
2023-03-17T15:32:30.870Z,521.00
2023-03-17T15:36:33.045Z,524.00
2023-03-17T15:40:30.784Z,518.00
2023-03-17T15:44:30.794Z,515.00
2023-03-17T15:48:30.242Z,509.00
2023-03-17T15:52:30.325Z,511.00
2023-03-17T15:56:29.911Z,514.00
2023-03-17T16:00:30.559Z,512.00
2023-03-17T16:04:29.988Z,517.00
2023-03-17T16:08:29.797Z,516.00
2023-03-17T16:12:29.811Z,514.00
2023-03-17T16:16:29.467Z,517.00
2023-03-17T16:20:29.722Z,516.00
2023-03-17T16:24:29.323Z,518.00
2023-03-17T16:28:28.918Z,524.00
2023-03-17T16:32:28.859Z,519.00
2023-03-17T16:36:28.923Z,521.00
2023-03-17T16:40:28.874Z,521.00
2023-03-17T16:44:28.385Z,521.00
2023-03-17T16:48:28.147Z,520.00
2023-03-17T16:52:27.986Z,518.00
2023-03-17T16:56:27.954Z,516.00
2023-03-17T17:00:27.689Z,516.00
2023-03-17T17:04:27.661Z,517.00
2023-03-17T17:08:27.726Z,518.00
2023-03-17T17:12:27.648Z,513.00
2023-03-17T17:16:27.678Z,517.00
2023-03-17T17:20:27.520Z,519.00
2023-03-17T17:24:27.493Z,514.00
2023-03-17T17:28:27.489Z,512.00
2023-03-17T17:32:27.492Z,515.00
2023-03-17T17:36:27.291Z,517.00
2023-03-17T17:40:27.161Z,514.00
2023-03-17T17:44:27.076Z,517.00
2023-03-17T17:48:26.935Z,517.00
2023-03-17T17:52:26.835Z,511.00
2023-03-17T17:56:26.756Z,510.00
2023-03-17T18:00:26.672Z,512.00
2023-03-17T18:04:26.650Z,513.00
2023-03-17T18:08:26.467Z,516.00
2023-03-17T18:12:26.361Z,523.00
2023-03-17T18:16:26.355Z,520.00
2023-03-17T18:20:26.209Z,518.00
2023-03-17T18:24:26.145Z,521.00
2023-03-17T18:28:26.088Z,520.00
2023-03-17T18:32:26.059Z,515.00
2023-03-17T18:36:25.995Z,514.00
2023-03-17T18:40:26.014Z,519.00
2023-03-17T18:44:25.942Z,520.00
2023-03-17T18:48:25.945Z,523.00
2023-03-17T18:52:25.908Z,520.00
2023-03-17T18:56:25.888Z,516.00
2023-03-17T19:00:25.885Z,513.00
2023-03-17T19:04:25.909Z,512.00
2023-03-17T19:08:25.921Z,512.00
2023-03-17T19:12:25.932Z,516.00
2023-03-17T19:16:25.979Z,518.00
2023-03-17T19:20:25.979Z,514.00
2023-03-17T19:24:25.999Z,518.00
2023-03-17T19:28:26.044Z,517.00
2023-03-17T19:32:26.057Z,517.00
2023-03-17T19:36:26.144Z,519.00
2023-03-17T19:40:26.192Z,524.00
2023-03-17T19:44:26.274Z,519.00
2023-03-17T19:48:26.347Z,521.00
2023-03-17T19:52:26.458Z,522.00
2023-03-17T19:56:26.509Z,519.00
2023-03-17T20:00:26.608Z,519.00
2023-03-17T20:04:26.827Z,523.00
2023-03-17T20:08:26.839Z,521.00
2023-03-17T20:12:26.934Z,524.00
2023-03-17T20:16:27.072Z,523.00
2023-03-17T20:20:27.193Z,525.00
2023-03-17T20:24:27.385Z,526.00
2023-03-17T20:28:29.994Z,523.00
2023-03-17T20:32:27.493Z,524.00
2023-03-17T20:36:27.361Z,523.00
2023-03-17T20:40:27.307Z,517.00
2023-03-17T20:44:27.216Z,519.00
2023-03-17T20:48:27.132Z,517.00
2023-03-17T20:52:29.484Z,526.00
2023-03-17T20:56:26.985Z,522.00
2023-03-17T21:00:26.888Z,519.00
2023-03-17T21:04:26.816Z,522.00
2023-03-17T21:08:26.713Z,521.00
2023-03-17T21:12:26.656Z,520.00
2023-03-17T21:16:26.687Z,516.00
2023-03-17T21:20:26.522Z,518.00
2023-03-17T21:24:26.433Z,516.00
2023-03-17T21:28:26.385Z,515.00
2023-03-17T21:32:26.262Z,515.00
2023-03-17T21:36:26.177Z,516.00
2023-03-17T21:40:26.154Z,516.00
2023-03-17T21:44:26.036Z,517.00
2023-03-17T21:48:26.019Z,519.00
2023-03-17T21:52:26.166Z,517.00
2023-03-17T21:56:26.133Z,518.00
2023-03-17T22:00:30.942Z,518.00
2023-03-17T22:04:26.044Z,518.00
2023-03-17T22:08:25.962Z,513.00
2023-03-17T22:12:25.811Z,514.00
2023-03-17T22:16:25.909Z,515.00
2023-03-17T22:20:25.646Z,515.00
2023-03-17T22:24:25.603Z,519.00
2023-03-17T22:28:25.509Z,526.00
2023-03-17T22:32:25.447Z,528.00
2023-03-17T22:36:25.336Z,522.00
2023-03-17T22:40:25.241Z,522.00
2023-03-17T22:44:25.144Z,519.00
2023-03-17T22:48:25.076Z,521.00
2023-03-17T22:52:25.028Z,514.00
2023-03-17T22:56:24.887Z,520.00
2023-03-17T23:00:24.833Z,516.00
2023-03-17T23:04:24.808Z,514.00
2023-03-17T23:08:24.718Z,512.00
2023-03-17T23:12:24.642Z,511.00
2023-03-17T23:16:24.625Z,512.00
2023-03-17T23:20:24.646Z,512.00
2023-03-17T23:24:24.493Z,511.00
2023-03-17T23:28:24.437Z,513.00
2023-03-17T23:32:24.365Z,514.00
2023-03-17T23:36:24.332Z,516.00
2023-03-17T23:40:24.236Z,515.00
2023-03-17T23:44:24.174Z,517.00
2023-03-17T23:48:24.137Z,512.00
2023-03-17T23:52:24.112Z,515.00
2023-03-17T23:56:24.008Z,516.00
